sensor_id;sensor_type;location;lat;lon;timestamp;temperature;humidity
2907;DHT22;1463;51.070;16.998;2022-07-29T00:01:55;20.00;69.30
2907;DHT22;1463;51.070;16.998;2022-07-29T00:04:22;20.00;69.40
2907;DHT22;1463;51.070;16.998;2022-07-29T00:06:49;20.00;69.60
2907;DHT22;1463;51.070;16.998;2022-07-29T00:09:16;20.00;69.80
2907;DHT22;1463;51.070;16.998;2022-07-29T00:11:46;20.00;70.00
2907;DHT22;1463;51.070;16.998;2022-07-29T00:14:13;19.90;70.10
2907;DHT22;1463;51.070;16.998;2022-07-29T00:16:40;19.90;70.50
2907;DHT22;1463;51.070;16.998;2022-07-29T00:19:07;19.80;70.60
2907;DHT22;1463;51.070;16.998;2022-07-29T00:21:35;19.80;70.80
2907;DHT22;1463;51.070;16.998;2022-07-29T00:24:02;19.80;71.00
2907;DHT22;1463;51.070;16.998;2022-07-29T00:26:29;19.80;71.20
2907;DHT22;1463;51.070;16.998;2022-07-29T00:28:59;19.80;71.30
2907;DHT22;1463;51.070;16.998;2022-07-29T00:31:26;19.70;71.50
2907;DHT22;1463;51.070;16.998;2022-07-29T00:33:53;19.70;71.80
2907;DHT22;1463;51.070;16.998;2022-07-29T00:36:20;19.70;71.90
2907;DHT22;1463;51.070;16.998;2022-07-29T00:38:47;19.70;72.20
2907;DHT22;1463;51.070;16.998;2022-07-29T00:41:14;19.60;72.40
2907;DHT22;1463;51.070;16.998;2022-07-29T00:43:41;19.60;72.70
2907;DHT22;1463;51.070;16.998;2022-07-29T00:46:10;19.60;72.90
2907;DHT22;1463;51.070;16.998;2022-07-29T00:48:37;19.60;73.10
2907;DHT22;1463;51.070;16.998;2022-07-29T00:51:05;19.60;73.30
2907;DHT22;1463;51.070;16.998;2022-07-29T00:53:33;19.50;73.50
2907;DHT22;1463;51.070;16.998;2022-07-29T00:56:01;19.50;73.80
2907;DHT22;1463;51.070;16.998;2022-07-29T00:58:28;19.50;73.90
2907;DHT22;1463;51.070;16.998;2022-07-29T01:00:55;19.50;74.10
2907;DHT22;1463;51.070;16.998;2022-07-29T01:03:24;19.40;74.30
2907;DHT22;1463;51.070;16.998;2022-07-29T01:05:51;19.40;74.60
2907;DHT22;1463;51.070;16.998;2022-07-29T01:08:19;19.40;74.70
2907;DHT22;1463;51.070;16.998;2022-07-29T01:10:47;19.40;75.00
2907;DHT22;1463;51.070;16.998;2022-07-29T01:13:14;19.40;75.20
2907;DHT22;1463;51.070;16.998;2022-07-29T01:15:43;19.30;75.40
2907;DHT22;1463;51.070;16.998;2022-07-29T01:18:11;19.30;75.70
2907;DHT22;1463;51.070;16.998;2022-07-29T01:20:45;19.30;76.00
2907;DHT22;1463;51.070;16.998;2022-07-29T01:31:33;19.10;77.20
2907;DHT22;1463;51.070;16.998;2022-07-29T01:34:03;19.10;77.50
2907;DHT22;1463;51.070;16.998;2022-07-29T01:36:32;19.10;77.80
2907;DHT22;1463;51.070;16.998;2022-07-29T01:39:03;19.00;78.10
2907;DHT22;1463;51.070;16.998;2022-07-29T01:41:31;19.00;78.30
2907;DHT22;1463;51.070;16.998;2022-07-29T01:44:01;19.00;78.70
2907;DHT22;1463;51.070;16.998;2022-07-29T01:46:30;19.00;78.80
2907;DHT22;1463;51.070;16.998;2022-07-29T01:49:02;19.00;79.20
2907;DHT22;1463;51.070;16.998;2022-07-29T01:51:35;19.00;79.40
2907;DHT22;1463;51.070;16.998;2022-07-29T01:54:04;19.00;79.60
2907;DHT22;1463;51.070;16.998;2022-07-29T01:56:33;19.00;80.00
2907;DHT22;1463;51.070;16.998;2022-07-29T01:59:01;19.00;80.20
2907;DHT22;1463;51.070;16.998;2022-07-29T02:01:30;18.90;80.50
2907;DHT22;1463;51.070;16.998;2022-07-29T02:03:59;18.90;80.70
2907;DHT22;1463;51.070;16.998;2022-07-29T02:06:29;18.90;81.20
2907;DHT22;1463;51.070;16.998;2022-07-29T02:08:57;18.80;81.50
2907;DHT22;1463;51.070;16.998;2022-07-29T02:11:25;18.80;81.80
2907;DHT22;1463;51.070;16.998;2022-07-29T02:13:52;18.80;82.20
2907;DHT22;1463;51.070;16.998;2022-07-29T02:16:21;18.70;82.40
2907;DHT22;1463;51.070;16.998;2022-07-29T02:18:50;18.70;82.90
2907;DHT22;1463;51.070;16.998;2022-07-29T02:21:21;18.70;83.20
2907;DHT22;1463;51.070;16.998;2022-07-29T02:23:49;18.70;83.70
2907;DHT22;1463;51.070;16.998;2022-07-29T02:26:19;18.60;84.10
2907;DHT22;1463;51.070;16.998;2022-07-29T02:28:47;18.60;84.60
2907;DHT22;1463;51.070;16.998;2022-07-29T02:31:15;18.50;85.00
2907;DHT22;1463;51.070;16.998;2022-07-29T02:33:45;18.50;85.80
2907;DHT22;1463;51.070;16.998;2022-07-29T02:36:14;18.40;86.30
2907;DHT22;1463;51.070;16.998;2022-07-29T02:38:43;18.40;87.00
2907;DHT22;1463;51.070;16.998;2022-07-29T02:41:20;18.30;87.60
2907;DHT22;1463;51.070;16.998;2022-07-29T02:43:50;18.30;88.20
2907;DHT22;1463;51.070;16.998;2022-07-29T02:46:21;18.30;88.80
2907;DHT22;1463;51.070;16.998;2022-07-29T02:48:51;18.30;89.30
2907;DHT22;1463;51.070;16.998;2022-07-29T02:51:23;18.20;89.90
2907;DHT22;1463;51.070;16.998;2022-07-29T02:53:52;18.30;90.20
2907;DHT22;1463;51.070;16.998;2022-07-29T02:56:23;18.20;90.50
2907;DHT22;1463;51.070;16.998;2022-07-29T02:58:53;18.30;90.80
2907;DHT22;1463;51.070;16.998;2022-07-29T03:01:22;18.20;90.90
2907;DHT22;1463;51.070;16.998;2022-07-29T03:03:50;18.20;91.20
2907;DHT22;1463;51.070;16.998;2022-07-29T03:06:19;18.20;91.50
2907;DHT22;1463;51.070;16.998;2022-07-29T03:08:46;18.10;91.80
2907;DHT22;1463;51.070;16.998;2022-07-29T03:11:15;18.10;92.20
2907;DHT22;1463;51.070;16.998;2022-07-29T03:13:43;18.10;92.70
2907;DHT22;1463;51.070;16.998;2022-07-29T03:16:11;17.90;93.30
2907;DHT22;1463;51.070;16.998;2022-07-29T03:18:39;17.80;94.00
2907;DHT22;1463;51.070;16.998;2022-07-29T03:21:06;17.80;94.70
2907;DHT22;1463;51.070;16.998;2022-07-29T03:23:34;17.80;95.20
2907;DHT22;1463;51.070;16.998;2022-07-29T03:26:01;17.80;95.70
2907;DHT22;1463;51.070;16.998;2022-07-29T03:28:30;17.80;96.00
2907;DHT22;1463;51.070;16.998;2022-07-29T03:30:57;17.80;96.30
2907;DHT22;1463;51.070;16.998;2022-07-29T03:33:24;17.90;96.50
2907;DHT22;1463;51.070;16.998;2022-07-29T03:35:52;17.90;96.60
2907;DHT22;1463;51.070;16.998;2022-07-29T03:38:19;17.90;96.90
2907;DHT22;1463;51.070;16.998;2022-07-29T03:40:48;17.90;97.20
2907;DHT22;1463;51.070;16.998;2022-07-29T03:43:16;17.80;98.10
2907;DHT22;1463;51.070;16.998;2022-07-29T03:45:47;17.90;98.70
2907;DHT22;1463;51.070;16.998;2022-07-29T03:48:15;17.90;98.50
2907;DHT22;1463;51.070;16.998;2022-07-29T03:50:44;17.90;99.20
2907;DHT22;1463;51.070;16.998;2022-07-29T03:53:11;18.00;99.60
2907;DHT22;1463;51.070;16.998;2022-07-29T03:55:40;18.00;99.50
2907;DHT22;1463;51.070;16.998;2022-07-29T03:58:08;18.00;99.40
2907;DHT22;1463;51.070;16.998;2022-07-29T04:00:35;18.10;99.70
2907;DHT22;1463;51.070;16.998;2022-07-29T04:03:05;18.00;99.70
2907;DHT22;1463;51.070;16.998;2022-07-29T04:05:32;18.10;99.90
2907;DHT22;1463;51.070;16.998;2022-07-29T04:08:00;18.10;99.90
2907;DHT22;1463;51.070;16.998;2022-07-29T04:10:27;18.10;99.90
2907;DHT22;1463;51.070;16.998;2022-07-29T04:12:54;18.10;99.90
2907;DHT22;1463;51.070;16.998;2022-07-29T04:15:21;18.20;99.90
2907;DHT22;1463;51.070;16.998;2022-07-29T04:17:48;18.20;99.80
2907;DHT22;1463;51.070;16.998;2022-07-29T04:20:17;18.20;99.90
2907;DHT22;1463;51.070;16.998;2022-07-29T04:22:44;18.20;99.90
2907;DHT22;1463;51.070;16.998;2022-07-29T04:25:11;18.20;99.90
2907;DHT22;1463;51.070;16.998;2022-07-29T04:27:39;18.20;99.90
2907;DHT22;1463;51.070;16.998;2022-07-29T04:30:25;18.20;99.90
2907;DHT22;1463;51.070;16.998;2022-07-29T04:32:53;18.20;99.90
2907;DHT22;1463;51.070;16.998;2022-07-29T04:35:22;18.30;99.90
2907;DHT22;1463;51.070;16.998;2022-07-29T04:37:49;18.40;99.90
2907;DHT22;1463;51.070;16.998;2022-07-29T04:40:16;18.40;99.90
2907;DHT22;1463;51.070;16.998;2022-07-29T04:42:43;18.40;99.90
2907;DHT22;1463;51.070;16.998;2022-07-29T04:45:11;18.40;99.90
2907;DHT22;1463;51.070;16.998;2022-07-29T04:47:38;18.40;99.80
2907;DHT22;1463;51.070;16.998;2022-07-29T04:50:05;18.50;99.80
2907;DHT22;1463;51.070;16.998;2022-07-29T04:52:34;18.50;99.90
2907;DHT22;1463;51.070;16.998;2022-07-29T04:55:02;18.50;99.90
2907;DHT22;1463;51.070;16.998;2022-07-29T04:57:30;18.60;99.90
2907;DHT22;1463;51.070;16.998;2022-07-29T04:59:57;18.70;99.90
2907;DHT22;1463;51.070;16.998;2022-07-29T05:02:25;18.80;99.80
2907;DHT22;1463;51.070;16.998;2022-07-29T05:04:52;18.70;99.40
2907;DHT22;1463;51.070;16.998;2022-07-29T05:07:20;18.80;99.90
2907;DHT22;1463;51.070;16.998;2022-07-29T05:09:48;18.90;99.80
2907;DHT22;1463;51.070;16.998;2022-07-29T05:12:15;18.90;99.60
2907;DHT22;1463;51.070;16.998;2022-07-29T05:14:42;18.90;99.10
2907;DHT22;1463;51.070;16.998;2022-07-29T05:17:10;18.90;99.30
2907;DHT22;1463;51.070;16.998;2022-07-29T05:19:37;18.90;98.50
2907;DHT22;1463;51.070;16.998;2022-07-29T05:22:04;18.90;98.80
2907;DHT22;1463;51.070;16.998;2022-07-29T05:24:31;18.80;99.30
2907;DHT22;1463;51.070;16.998;2022-07-29T05:27:00;18.80;99.50
2907;DHT22;1463;51.070;16.998;2022-07-29T05:29:27;18.80;99.90
2907;DHT22;1463;51.070;16.998;2022-07-29T05:31:55;18.90;99.90
2907;DHT22;1463;51.070;16.998;2022-07-29T05:34:23;18.90;99.90
2907;DHT22;1463;51.070;16.998;2022-07-29T05:36:50;18.90;99.90
2907;DHT22;1463;51.070;16.998;2022-07-29T05:39:17;18.90;99.90
2907;DHT22;1463;51.070;16.998;2022-07-29T05:41:44;19.00;99.90
2907;DHT22;1463;51.070;16.998;2022-07-29T05:44:13;19.10;99.90
2907;DHT22;1463;51.070;16.998;2022-07-29T05:46:41;19.10;99.90
2907;DHT22;1463;51.070;16.998;2022-07-29T05:49:08;19.10;99.90
2907;DHT22;1463;51.070;16.998;2022-07-29T05:51:35;19.10;99.90
2907;DHT22;1463;51.070;16.998;2022-07-29T05:54:03;19.10;99.90
2907;DHT22;1463;51.070;16.998;2022-07-29T05:56:30;19.20;99.90
2907;DHT22;1463;51.070;16.998;2022-07-29T05:58:57;19.20;99.90
2907;DHT22;1463;51.070;16.998;2022-07-29T06:01:26;19.20;99.90
2907;DHT22;1463;51.070;16.998;2022-07-29T06:03:53;19.20;99.90
2907;DHT22;1463;51.070;16.998;2022-07-29T06:06:20;19.30;99.90
2907;DHT22;1463;51.070;16.998;2022-07-29T06:08:48;19.40;99.90
2907;DHT22;1463;51.070;16.998;2022-07-29T06:11:15;19.40;99.90
2907;DHT22;1463;51.070;16.998;2022-07-29T06:13:43;19.40;99.90
2907;DHT22;1463;51.070;16.998;2022-07-29T06:16:10;19.50;99.90
2907;DHT22;1463;51.070;16.998;2022-07-29T06:18:39;19.50;99.90
2907;DHT22;1463;51.070;16.998;2022-07-29T06:21:09;19.60;99.90
2907;DHT22;1463;51.070;16.998;2022-07-29T06:23:36;19.70;99.90
2907;DHT22;1463;51.070;16.998;2022-07-29T06:26:04;19.70;99.30
2907;DHT22;1463;51.070;16.998;2022-07-29T06:28:33;19.70;99.50
2907;DHT22;1463;51.070;16.998;2022-07-29T06:31:00;19.80;99.50
2907;DHT22;1463;51.070;16.998;2022-07-29T06:33:27;19.80;98.50
2907;DHT22;1463;51.070;16.998;2022-07-29T06:35:56;19.80;98.30
2907;DHT22;1463;51.070;16.998;2022-07-29T06:38:25;19.90;98.40
2907;DHT22;1463;51.070;16.998;2022-07-29T06:40:52;19.90;98.30
2907;DHT22;1463;51.070;16.998;2022-07-29T06:43:34;19.90;98.20
2907;DHT22;1463;51.070;16.998;2022-07-29T06:46:04;20.00;98.30
2907;DHT22;1463;51.070;16.998;2022-07-29T06:48:31;20.00;98.30
2907;DHT22;1463;51.070;16.998;2022-07-29T06:51:00;20.10;97.70
2907;DHT22;1463;51.070;16.998;2022-07-29T06:53:28;20.20;97.40
2907;DHT22;1463;51.070;16.998;2022-07-29T06:55:55;20.30;97.00
2907;DHT22;1463;51.070;16.998;2022-07-29T06:58:23;20.40;96.70
2907;DHT22;1463;51.070;16.998;2022-07-29T07:00:51;20.40;96.40
2907;DHT22;1463;51.070;16.998;2022-07-29T07:03:20;20.30;96.00
2907;DHT22;1463;51.070;16.998;2022-07-29T07:05:48;20.40;96.60
2907;DHT22;1463;51.070;16.998;2022-07-29T07:08:17;20.40;96.70
2907;DHT22;1463;51.070;16.998;2022-07-29T07:10:45;20.50;96.50
2907;DHT22;1463;51.070;16.998;2022-07-29T07:13:12;20.50;96.40
2907;DHT22;1463;51.070;16.998;2022-07-29T07:15:40;20.60;96.20
2907;DHT22;1463;51.070;16.998;2022-07-29T07:18:07;20.70;96.40
2907;DHT22;1463;51.070;16.998;2022-07-29T07:20:35;20.90;96.20
2907;DHT22;1463;51.070;16.998;2022-07-29T07:23:02;21.00;95.60
2907;DHT22;1463;51.070;16.998;2022-07-29T07:25:31;21.20;95.00
2907;DHT22;1463;51.070;16.998;2022-07-29T07:27:58;21.20;94.70
2907;DHT22;1463;51.070;16.998;2022-07-29T07:30:26;21.30;94.20
2907;DHT22;1463;51.070;16.998;2022-07-29T07:32:54;21.30;94.00
2907;DHT22;1463;51.070;16.998;2022-07-29T07:35:21;21.30;94.10
2907;DHT22;1463;51.070;16.998;2022-07-29T07:37:48;21.30;94.20
2907;DHT22;1463;51.070;16.998;2022-07-29T07:40:15;21.40;94.00
2907;DHT22;1463;51.070;16.998;2022-07-29T07:42:44;21.40;94.00
2907;DHT22;1463;51.070;16.998;2022-07-29T07:45:12;21.40;94.30
2907;DHT22;1463;51.070;16.998;2022-07-29T07:47:39;21.50;94.40
2907;DHT22;1463;51.070;16.998;2022-07-29T07:50:07;21.50;94.40
2907;DHT22;1463;51.070;16.998;2022-07-29T07:52:37;21.60;94.00
2907;DHT22;1463;51.070;16.998;2022-07-29T07:55:12;21.60;94.20
2907;DHT22;1463;51.070;16.998;2022-07-29T07:57:40;21.70;94.20
2907;DHT22;1463;51.070;16.998;2022-07-29T08:00:09;21.70;94.50
2907;DHT22;1463;51.070;16.998;2022-07-29T08:02:37;21.80;94.60
2907;DHT22;1463;51.070;16.998;2022-07-29T08:05:05;21.80;94.70
2907;DHT22;1463;51.070;16.998;2022-07-29T08:07:32;21.80;94.70
2907;DHT22;1463;51.070;16.998;2022-07-29T08:09:59;21.90;94.60
2907;DHT22;1463;51.070;16.998;2022-07-29T08:12:26;21.90;94.80
2907;DHT22;1463;51.070;16.998;2022-07-29T08:14:53;22.00;94.70
2907;DHT22;1463;51.070;16.998;2022-07-29T08:17:22;22.00;94.60
2907;DHT22;1463;51.070;16.998;2022-07-29T08:19:49;22.10;94.60
2907;DHT22;1463;51.070;16.998;2022-07-29T08:22:16;22.20;94.50
2907;DHT22;1463;51.070;16.998;2022-07-29T08:24:44;22.30;94.40
2907;DHT22;1463;51.070;16.998;2022-07-29T08:27:18;22.30;94.40
2907;DHT22;1463;51.070;16.998;2022-07-29T08:29:46;22.40;94.20
2907;DHT22;1463;51.070;16.998;2022-07-29T08:32:13;22.40;93.90
2907;DHT22;1463;51.070;16.998;2022-07-29T08:34:42;22.50;93.80
2907;DHT22;1463;51.070;16.998;2022-07-29T08:37:11;22.70;93.80
2907;DHT22;1463;51.070;16.998;2022-07-29T08:39:38;22.70;93.50
2907;DHT22;1463;51.070;16.998;2022-07-29T08:42:06;22.70;93.40
2907;DHT22;1463;51.070;16.998;2022-07-29T08:44:35;22.70;93.60
2907;DHT22;1463;51.070;16.998;2022-07-29T08:47:03;22.70;93.60
2907;DHT22;1463;51.070;16.998;2022-07-29T08:49:30;22.80;93.70
2907;DHT22;1463;51.070;16.998;2022-07-29T08:51:59;22.90;93.40
2907;DHT22;1463;51.070;16.998;2022-07-29T08:54:26;23.00;93.40
2907;DHT22;1463;51.070;16.998;2022-07-29T08:56:54;23.10;93.10
2907;DHT22;1463;51.070;16.998;2022-07-29T08:59:22;23.20;93.10
2907;DHT22;1463;51.070;16.998;2022-07-29T09:01:52;23.30;92.70
2907;DHT22;1463;51.070;16.998;2022-07-29T09:04:19;23.40;92.30
2907;DHT22;1463;51.070;16.998;2022-07-29T09:06:47;23.60;91.80
2907;DHT22;1463;51.070;16.998;2022-07-29T09:09:17;23.70;91.60
2907;DHT22;1463;51.070;16.998;2022-07-29T09:11:44;23.80;91.00
2907;DHT22;1463;51.070;16.998;2022-07-29T09:14:12;23.90;90.90
2907;DHT22;1463;51.070;16.998;2022-07-29T09:16:49;24.00;90.90
2907;DHT22;1463;51.070;16.998;2022-07-29T09:19:24;24.00;90.50
2907;DHT22;1463;51.070;16.998;2022-07-29T09:21:54;24.00;90.10
2907;DHT22;1463;51.070;16.998;2022-07-29T09:24:36;24.20;90.40
2907;DHT22;1463;51.070;16.998;2022-07-29T09:27:08;24.20;90.40
2907;DHT22;1463;51.070;16.998;2022-07-29T09:29:36;24.20;90.40
2907;DHT22;1463;51.070;16.998;2022-07-29T09:32:09;24.20;90.10
2907;DHT22;1463;51.070;16.998;2022-07-29T09:34:36;24.20;90.30
2907;DHT22;1463;51.070;16.998;2022-07-29T09:37:04;24.10;90.70
2907;DHT22;1463;51.070;16.998;2022-07-29T09:39:34;24.10;90.60
2907;DHT22;1463;51.070;16.998;2022-07-29T09:42:02;24.00;90.80
2907;DHT22;1463;51.070;16.998;2022-07-29T09:44:43;23.90;90.90
2907;DHT22;1463;51.070;16.998;2022-07-29T09:47:11;23.80;91.00
2907;DHT22;1463;51.070;16.998;2022-07-29T09:49:49;23.90;91.40
2907;DHT22;1463;51.070;16.998;2022-07-29T09:52:17;23.90;91.20
2907;DHT22;1463;51.070;16.998;2022-07-29T09:54:46;23.90;91.30
2907;DHT22;1463;51.070;16.998;2022-07-29T09:57:24;23.90;91.20
2907;DHT22;1463;51.070;16.998;2022-07-29T09:59:59;23.90;91.50
2907;DHT22;1463;51.070;16.998;2022-07-29T10:02:30;24.00;91.60
2907;DHT22;1463;51.070;16.998;2022-07-29T10:04:59;24.00;91.60
2907;DHT22;1463;51.070;16.998;2022-07-29T10:07:26;24.00;91.90
2907;DHT22;1463;51.070;16.998;2022-07-29T10:09:57;24.10;91.90
2907;DHT22;1463;51.070;16.998;2022-07-29T10:12:24;24.20;91.60
2907;DHT22;1463;51.070;16.998;2022-07-29T10:14:51;24.20;91.00
2907;DHT22;1463;51.070;16.998;2022-07-29T10:17:18;24.20;91.20
2907;DHT22;1463;51.070;16.998;2022-07-29T10:19:46;24.30;91.10
2907;DHT22;1463;51.070;16.998;2022-07-29T10:22:14;24.40;91.00
2907;DHT22;1463;51.070;16.998;2022-07-29T10:24:41;24.40;91.10
2907;DHT22;1463;51.070;16.998;2022-07-29T10:27:10;24.40;91.10
2907;DHT22;1463;51.070;16.998;2022-07-29T10:29:37;24.40;91.10
2907;DHT22;1463;51.070;16.998;2022-07-29T10:32:16;24.40;90.90
2907;DHT22;1463;51.070;16.998;2022-07-29T10:37:33;24.50;91.00
2907;DHT22;1463;51.070;16.998;2022-07-29T10:40:08;24.60;90.60
2907;DHT22;1463;51.070;16.998;2022-07-29T10:42:53;24.70;90.50
2907;DHT22;1463;51.070;16.998;2022-07-29T10:45:22;24.80;90.10
2907;DHT22;1463;51.070;16.998;2022-07-29T10:47:59;24.90;90.10
2907;DHT22;1463;51.070;16.998;2022-07-29T10:50:28;25.00;89.40
2907;DHT22;1463;51.070;16.998;2022-07-29T10:53:16;25.00;89.00
2907;DHT22;1463;51.070;16.998;2022-07-29T10:55:43;25.00;88.80
2907;DHT22;1463;51.070;16.998;2022-07-29T10:58:15;25.10;89.10
2907;DHT22;1463;51.070;16.998;2022-07-29T11:00:43;25.10;88.80
2907;DHT22;1463;51.070;16.998;2022-07-29T11:05:53;25.10;88.00
2907;DHT22;1463;51.070;16.998;2022-07-29T11:08:24;25.10;88.80
2907;DHT22;1463;51.070;16.998;2022-07-29T11:13:48;25.10;88.70
2907;DHT22;1463;51.070;16.998;2022-07-29T11:16:17;25.10;88.60
2907;DHT22;1463;51.070;16.998;2022-07-29T11:21:36;25.20;88.00
2907;DHT22;1463;51.070;16.998;2022-07-29T11:24:11;25.20;87.60
2907;DHT22;1463;51.070;16.998;2022-07-29T11:26:38;25.20;87.30
2907;DHT22;1463;51.070;16.998;2022-07-29T11:29:13;25.20;87.60
2907;DHT22;1463;51.070;16.998;2022-07-29T11:31:44;25.10;87.30
2907;DHT22;1463;51.070;16.998;2022-07-29T11:34:18;25.10;87.30
2907;DHT22;1463;51.070;16.998;2022-07-29T11:39:31;25.00;86.10
2907;DHT22;1463;51.070;16.998;2022-07-29T11:42:08;25.00;86.50
2907;DHT22;1463;51.070;16.998;2022-07-29T11:44:58;25.00;85.90
2907;DHT22;1463;51.070;16.998;2022-07-29T11:47:31;25.00;86.30
2907;DHT22;1463;51.070;16.998;2022-07-29T11:49:59;25.00;86.50
2907;DHT22;1463;51.070;16.998;2022-07-29T11:52:31;25.00;85.20
2907;DHT22;1463;51.070;16.998;2022-07-29T11:55:00;25.00;84.90
2907;DHT22;1463;51.070;16.998;2022-07-29T11:57:28;25.00;85.10
2907;DHT22;1463;51.070;16.998;2022-07-29T11:59:55;25.00;85.20
2907;DHT22;1463;51.070;16.998;2022-07-29T12:02:26;25.00;84.80
2907;DHT22;1463;51.070;16.998;2022-07-29T12:05:05;25.00;85.10
2907;DHT22;1463;51.070;16.998;2022-07-29T12:07:33;25.00;84.50
2907;DHT22;1463;51.070;16.998;2022-07-29T12:10:00;25.00;85.00
2907;DHT22;1463;51.070;16.998;2022-07-29T12:12:28;25.10;84.80
2907;DHT22;1463;51.070;16.998;2022-07-29T12:14:56;25.20;84.80
2907;DHT22;1463;51.070;16.998;2022-07-29T12:17:28;25.30;84.40
2907;DHT22;1463;51.070;16.998;2022-07-29T12:19:55;25.40;84.00
2907;DHT22;1463;51.070;16.998;2022-07-29T12:22:26;25.30;83.40
2907;DHT22;1463;51.070;16.998;2022-07-29T12:24:54;25.40;83.80
2907;DHT22;1463;51.070;16.998;2022-07-29T12:27:22;25.30;84.00
2907;DHT22;1463;51.070;16.998;2022-07-29T12:29:55;25.30;84.20
2907;DHT22;1463;51.070;16.998;2022-07-29T12:32:23;25.30;84.30
2907;DHT22;1463;51.070;16.998;2022-07-29T12:34:52;25.40;84.40
2907;DHT22;1463;51.070;16.998;2022-07-29T12:37:19;25.40;84.10
2907;DHT22;1463;51.070;16.998;2022-07-29T12:39:47;25.40;84.20
2907;DHT22;1463;51.070;16.998;2022-07-29T12:42:14;25.40;84.30
2907;DHT22;1463;51.070;16.998;2022-07-29T12:44:44;25.30;84.00
2907;DHT22;1463;51.070;16.998;2022-07-29T12:47:12;25.30;84.30
2907;DHT22;1463;51.070;16.998;2022-07-29T12:49:40;25.30;85.10
2907;DHT22;1463;51.070;16.998;2022-07-29T12:54:54;25.40;84.80
2907;DHT22;1463;51.070;16.998;2022-07-29T12:57:21;25.50;84.60
2907;DHT22;1463;51.070;16.998;2022-07-29T13:02:40;25.70;83.90
2907;DHT22;1463;51.070;16.998;2022-07-29T13:05:09;25.90;83.90
2907;DHT22;1463;51.070;16.998;2022-07-29T13:07:38;26.10;83.40
2907;DHT22;1463;51.070;16.998;2022-07-29T13:10:14;26.20;81.90
2907;DHT22;1463;51.070;16.998;2022-07-29T13:13:02;26.30;82.20
2907;DHT22;1463;51.070;16.998;2022-07-29T13:15:30;26.30;82.00
2907;DHT22;1463;51.070;16.998;2022-07-29T13:17:58;26.30;81.90
2907;DHT22;1463;51.070;16.998;2022-07-29T13:20:26;26.20;81.40
2907;DHT22;1463;51.070;16.998;2022-07-29T13:22:55;26.10;82.10
2907;DHT22;1463;51.070;16.998;2022-07-29T13:25:28;26.10;81.50
2907;DHT22;1463;51.070;16.998;2022-07-29T13:27:57;26.20;82.10
2907;DHT22;1463;51.070;16.998;2022-07-29T13:30:25;26.20;81.70
2907;DHT22;1463;51.070;16.998;2022-07-29T13:32:52;26.20;81.50
2907;DHT22;1463;51.070;16.998;2022-07-29T13:35:20;26.10;82.00
2907;DHT22;1463;51.070;16.998;2022-07-29T13:37:47;26.10;82.00
2907;DHT22;1463;51.070;16.998;2022-07-29T13:40:15;26.00;82.20
2907;DHT22;1463;51.070;16.998;2022-07-29T13:42:44;25.90;82.30
2907;DHT22;1463;51.070;16.998;2022-07-29T13:45:11;26.00;83.90
2907;DHT22;1463;51.070;16.998;2022-07-29T13:47:38;26.10;82.30
2907;DHT22;1463;51.070;16.998;2022-07-29T13:50:06;26.30;82.80
2907;DHT22;1463;51.070;16.998;2022-07-29T13:52:36;26.40;82.20
2907;DHT22;1463;51.070;16.998;2022-07-29T13:55:04;26.20;82.00
2907;DHT22;1463;51.070;16.998;2022-07-29T13:57:32;26.10;82.20
2907;DHT22;1463;51.070;16.998;2022-07-29T14:00:01;26.00;82.70
2907;DHT22;1463;51.070;16.998;2022-07-29T14:02:28;26.00;82.60
2907;DHT22;1463;51.070;16.998;2022-07-29T14:04:55;25.90;82.90
2907;DHT22;1463;51.070;16.998;2022-07-29T14:07:22;25.80;83.60
2907;DHT22;1463;51.070;16.998;2022-07-29T14:09:50;25.80;83.60
2907;DHT22;1463;51.070;16.998;2022-07-29T14:12:17;25.80;83.80
2907;DHT22;1463;51.070;16.998;2022-07-29T14:14:45;25.80;83.80
2907;DHT22;1463;51.070;16.998;2022-07-29T14:17:14;25.80;83.20
2907;DHT22;1463;51.070;16.998;2022-07-29T14:19:41;25.80;83.30
2907;DHT22;1463;51.070;16.998;2022-07-29T14:22:08;25.80;83.50
2907;DHT22;1463;51.070;16.998;2022-07-29T14:24:36;25.80;83.40
2907;DHT22;1463;51.070;16.998;2022-07-29T14:27:03;25.80;83.50
2907;DHT22;1463;51.070;16.998;2022-07-29T14:29:31;25.80;83.80
2907;DHT22;1463;51.070;16.998;2022-07-29T14:31:58;25.80;83.80
2907;DHT22;1463;51.070;16.998;2022-07-29T14:34:28;25.80;83.50
2907;DHT22;1463;51.070;16.998;2022-07-29T14:36:55;25.80;83.70
2907;DHT22;1463;51.070;16.998;2022-07-29T14:39:23;25.90;83.40
2907;DHT22;1463;51.070;16.998;2022-07-29T14:41:50;25.90;83.80
2907;DHT22;1463;51.070;16.998;2022-07-29T14:44:18;25.90;84.30
2907;DHT22;1463;51.070;16.998;2022-07-29T14:46:45;25.80;83.70
2907;DHT22;1463;51.070;16.998;2022-07-29T14:49:12;25.80;84.00
2907;DHT22;1463;51.070;16.998;2022-07-29T14:51:41;25.80;84.30
2907;DHT22;1463;51.070;16.998;2022-07-29T14:54:09;25.90;84.20
2907;DHT22;1463;51.070;16.998;2022-07-29T14:56:36;25.80;84.00
2907;DHT22;1463;51.070;16.998;2022-07-29T14:59:03;25.90;84.10
2907;DHT22;1463;51.070;16.998;2022-07-29T15:01:31;25.90;84.20
2907;DHT22;1463;51.070;16.998;2022-07-29T15:03:58;25.80;84.10
2907;DHT22;1463;51.070;16.998;2022-07-29T15:06:26;25.80;84.30
2907;DHT22;1463;51.070;16.998;2022-07-29T15:08:54;25.80;84.70
2907;DHT22;1463;51.070;16.998;2022-07-29T15:11:21;25.70;85.00
2907;DHT22;1463;51.070;16.998;2022-07-29T15:13:49;25.60;85.20
2907;DHT22;1463;51.070;16.998;2022-07-29T15:16:16;25.50;85.70
2907;DHT22;1463;51.070;16.998;2022-07-29T15:18:43;25.50;86.00
2907;DHT22;1463;51.070;16.998;2022-07-29T15:21:11;25.50;85.60
2907;DHT22;1463;51.070;16.998;2022-07-29T15:23:39;25.40;85.50
2907;DHT22;1463;51.070;16.998;2022-07-29T15:26:07;25.50;86.20
2907;DHT22;1463;51.070;16.998;2022-07-29T15:28:36;25.40;86.30
2907;DHT22;1463;51.070;16.998;2022-07-29T15:31:03;25.50;86.30
2907;DHT22;1463;51.070;16.998;2022-07-29T15:33:30;25.50;86.30
2907;DHT22;1463;51.070;16.998;2022-07-29T15:35:57;25.60;86.60
2907;DHT22;1463;51.070;16.998;2022-07-29T15:38:25;25.50;86.70
2907;DHT22;1463;51.070;16.998;2022-07-29T15:40:52;25.50;86.80
2907;DHT22;1463;51.070;16.998;2022-07-29T15:43:21;25.40;87.10
2907;DHT22;1463;51.070;16.998;2022-07-29T15:45:48;25.40;87.30
2907;DHT22;1463;51.070;16.998;2022-07-29T15:48:29;25.30;87.30
2907;DHT22;1463;51.070;16.998;2022-07-29T15:50:57;25.40;87.40
2907;DHT22;1463;51.070;16.998;2022-07-29T15:53:25;25.30;87.70
2907;DHT22;1463;51.070;16.998;2022-07-29T15:55:52;25.30;88.20
2907;DHT22;1463;51.070;16.998;2022-07-29T15:58:21;25.30;88.60
2907;DHT22;1463;51.070;16.998;2022-07-29T16:00:48;25.20;88.50
2907;DHT22;1463;51.070;16.998;2022-07-29T16:03:15;25.20;88.60
2907;DHT22;1463;51.070;16.998;2022-07-29T16:05:42;25.20;88.60
2907;DHT22;1463;51.070;16.998;2022-07-29T16:08:10;25.20;89.00
2907;DHT22;1463;51.070;16.998;2022-07-29T16:10:37;25.20;89.10
2907;DHT22;1463;51.070;16.998;2022-07-29T16:13:04;25.10;89.10
2907;DHT22;1463;51.070;16.998;2022-07-29T16:15:34;25.20;90.50
2907;DHT22;1463;51.070;16.998;2022-07-29T16:18:02;25.20;93.00
2907;DHT22;1463;51.070;16.998;2022-07-29T16:20:29;25.10;94.90
2907;DHT22;1463;51.070;16.998;2022-07-29T16:22:56;25.10;95.80